Main page
METAR-TAF:

METAR-TAF

Airports :

Bournemouth Airport

Bournemouth, England

latitude: 50-47N, longitude: 001-50W, elevation: 11 m

Current weather observation

The report was made 5 hours and 56 minutes ago, at 17:50 UTC
Wind 4 kt from the Southwest
Temperature 10°C
Humidity 93%
Pressure 1011 hPa
Visibility: 4500 m
Overcast at a height of 300 ft
light rain, mist

METAR: EGHH 271750Z 22004KT 4500 -RA BR OVC003 10/09 Q1011

Time: 23:46 (23:46 UTC)

Forecast

The report was made 6 hours and 49 minutes ago, at 16:57 UTC
Forecast valid from 27 at 18 UTC to 27 at 22 UTC
Wind 5 kt from the West/Southwest
Visibility 10 km or more
Broken clouds at a height of 600 ft
Temporary
from 27 at 18 UTC to 27 at 22 UTC
Visibility: 3000 m
Broken clouds at a height of 300 ft
rain, mist
Probability 30%
from 27 at 20 UTC to 27 at 22 UTC
Visibility: 0300 m
Broken clouds at a height of 100 ft
fog

TAF: EGHH 271657Z 2718/2722 25005KT 9999 BKN006 TEMPO 2718/2722 3000 RA BR BKN003 PROB30 2720/2722 0300 FG BKN001

Weather observations and forecasts of more than 4000 airports (METAR and TAF reports).

The available stations are represented by yellow and red dots on the map.

Hover mouse over dot to see the name of the station.

Then click to see weather observations and forecasts.

To change the map : click on the green buttons with a black cross to zoom in, on the green button with a dash to zoom out, or on the green arrows for adjacent maps.


METAR-TAF: